createdAt,value
2018-04-24T00:01:28.248Z,18.70
2018-04-24T00:03:55.900Z,18.80
2018-04-24T00:06:23.575Z,18.90
2018-04-24T00:08:52.589Z,18.90
2018-04-24T00:11:21.183Z,19.00
2018-04-24T00:13:48.906Z,19.00
2018-04-24T00:16:16.405Z,19.10
2018-04-24T00:18:43.935Z,19.20
2018-04-24T00:21:11.477Z,19.20
2018-04-24T00:23:39.694Z,19.30
2018-04-24T00:26:07.230Z,19.30
2018-04-24T00:28:34.769Z,19.30
2018-04-24T00:31:03.015Z,19.20
2018-04-24T00:33:30.842Z,19.20
2018-04-24T00:35:58.957Z,19.10
2018-04-24T00:38:26.484Z,19.20
2018-04-24T00:40:55.185Z,19.10
2018-04-24T00:43:22.876Z,19.10
2018-04-24T00:45:50.421Z,18.90
2018-04-24T00:48:17.971Z,18.70
2018-04-24T00:50:45.808Z,18.70
2018-04-24T00:53:25.689Z,18.70
2018-04-24T00:55:53.221Z,18.70
2018-04-24T00:58:21.374Z,18.70
2018-04-24T01:00:48.909Z,18.70
2018-04-24T01:03:16.416Z,18.70
2018-04-24T01:18:38.989Z,18.70
2018-04-24T01:21:06.762Z,18.20
2018-04-24T01:23:34.255Z,18.10
2018-04-24T01:26:02.928Z,18.20
2018-04-24T01:28:30.644Z,18.20
2018-04-24T01:30:58.227Z,18.30
2018-04-24T01:33:25.724Z,18.30
2018-04-24T01:35:54.978Z,18.30
2018-04-24T01:38:22.507Z,18.40
2018-04-24T01:40:50.041Z,18.40
2018-04-24T01:43:17.603Z,18.40
2018-04-24T01:45:45.093Z,18.50
2018-04-24T01:48:12.621Z,18.50
2018-04-24T01:50:40.189Z,18.50
2018-04-24T01:53:08.487Z,18.50
2018-04-24T01:55:36.009Z,18.60
2018-04-24T01:58:03.524Z,18.70
2018-04-24T02:00:31.631Z,18.60
2018-04-24T02:02:59.819Z,18.70
2018-04-24T02:05:27.313Z,18.80
2018-04-24T02:07:55.611Z,18.70
2018-04-24T02:10:23.138Z,18.70
2018-04-24T02:12:50.707Z,18.60
2018-04-24T02:15:18.238Z,18.70
2018-04-24T02:17:45.723Z,18.80
2018-04-24T02:20:13.520Z,18.70
2018-04-24T02:22:41.044Z,18.70
2018-04-24T02:25:08.704Z,18.70
2018-04-24T02:27:36.190Z,18.60
2018-04-24T02:30:03.701Z,18.70
2018-04-24T02:32:32.169Z,18.60
2018-04-24T02:34:59.723Z,18.60
2018-04-24T02:37:27.284Z,18.60
2018-04-24T02:39:54.867Z,18.60
2018-04-24T02:42:23.920Z,18.50
2018-04-24T02:44:51.479Z,18.50
2018-04-24T02:47:19.503Z,18.60
2018-04-24T02:49:47.067Z,18.50
2018-04-24T02:52:14.626Z,18.40
2018-04-24T02:54:42.968Z,18.40
2018-04-24T02:57:11.285Z,18.40
2018-04-24T02:59:38.868Z,18.40
2018-04-24T03:02:06.444Z,18.30
2018-04-24T03:04:34.017Z,18.20
2018-04-24T03:07:01.769Z,18.20
2018-04-24T03:09:29.891Z,18.20
2018-04-24T03:11:57.630Z,18.20
2018-04-24T03:14:25.815Z,18.20
2018-04-24T03:16:53.340Z,18.10
2018-04-24T03:19:20.896Z,18.10
2018-04-24T03:21:48.457Z,18.20
2018-04-24T03:24:16.573Z,18.10
2018-04-24T03:26:44.133Z,18.10
2018-04-24T03:29:11.662Z,18.10
2018-04-24T03:31:40.162Z,18.10
2018-04-24T03:34:08.466Z,18.10
2018-04-24T03:36:36.031Z,18.20
2018-04-24T03:39:04.373Z,18.10
2018-04-24T03:41:31.956Z,18.10
2018-04-24T03:43:59.507Z,18.00
2018-04-24T03:46:27.088Z,18.00
2018-04-24T03:48:55.456Z,18.00
2018-04-24T03:51:23.699Z,18.00
2018-04-24T03:53:51.812Z,18.00
2018-04-24T03:56:19.375Z,18.00
2018-04-24T03:58:47.686Z,17.90
2018-04-24T04:01:15.437Z,17.90
2018-04-24T04:03:43.012Z,18.00
2018-04-24T04:06:10.569Z,18.00
2018-04-24T04:08:38.123Z,18.00
2018-04-24T04:11:06.214Z,18.00
2018-04-24T04:13:33.746Z,18.00
2018-04-24T04:16:01.403Z,17.90
2018-04-24T04:18:41.122Z,17.90
2018-04-24T04:21:20.407Z,18.00
2018-04-24T04:23:59.718Z,17.90
2018-04-24T04:26:27.283Z,17.90
2018-04-24T04:28:54.824Z,17.80
2018-04-24T04:31:22.369Z,17.80
2018-04-24T04:33:49.889Z,17.70
2018-04-24T04:36:17.535Z,17.80
2018-04-24T04:38:45.084Z,17.80
2018-04-24T04:41:12.877Z,17.90
2018-04-24T04:43:40.400Z,17.90
2018-04-24T04:46:07.957Z,18.00
2018-04-24T04:48:35.509Z,18.00
2018-04-24T04:51:03.065Z,17.90
2018-04-24T04:53:32.149Z,18.00
2018-04-24T04:56:01.477Z,18.00
2018-04-24T04:58:28.949Z,18.10
2018-04-24T05:00:58.233Z,18.10
2018-04-24T05:03:27.348Z,18.10
2018-04-24T05:05:54.933Z,18.10
2018-04-24T05:08:22.720Z,18.10
2018-04-24T05:10:50.515Z,18.00
2018-04-24T05:13:19.080Z,18.00
2018-04-24T05:15:46.756Z,17.90
2018-04-24T05:18:14.304Z,17.90
2018-04-24T05:20:42.198Z,18.00
2018-04-24T05:23:10.679Z,17.90
2018-04-24T05:25:39.013Z,17.80
2018-04-24T05:28:06.540Z,17.80
2018-04-24T05:30:34.157Z,17.80
2018-04-24T05:33:02.237Z,17.80
2018-04-24T05:35:30.664Z,17.80
2018-04-24T05:37:58.259Z,17.80
2018-04-24T05:40:26.075Z,17.90
2018-04-24T05:42:53.625Z,17.90
2018-04-24T05:45:21.376Z,17.80
2018-04-24T05:47:48.854Z,17.70
2018-04-24T05:50:16.914Z,17.70
2018-04-24T05:52:44.470Z,17.80
2018-04-24T05:55:12.928Z,17.90
2018-04-24T05:57:41.443Z,17.90
2018-04-24T06:00:10.564Z,17.80
2018-04-24T06:02:41.952Z,17.80
2018-04-24T06:05:10.121Z,17.80
2018-04-24T06:07:37.679Z,17.70
2018-04-24T06:10:05.588Z,17.90
2018-04-24T06:12:34.006Z,17.90
2018-04-24T06:15:04.043Z,17.90
2018-04-24T06:17:31.936Z,18.00
2018-04-24T06:19:59.472Z,17.90
2018-04-24T06:22:27.119Z,18.00
2018-04-24T06:24:54.848Z,17.90
2018-04-24T06:27:23.460Z,17.90
2018-04-24T06:29:51.089Z,17.90
2018-04-24T06:32:18.650Z,17.90
2018-04-24T06:34:47.578Z,17.90
2018-04-24T06:37:15.123Z,17.90
2018-04-24T06:39:42.814Z,18.10
2018-04-24T06:42:11.333Z,18.20
2018-04-24T06:44:39.541Z,18.30
2018-04-24T06:47:07.188Z,18.20
2018-04-24T06:49:35.505Z,18.20
2018-04-24T06:52:03.047Z,18.10
2018-04-24T06:54:30.634Z,18.10
2018-04-24T06:56:58.166Z,18.10
2018-04-24T06:59:25.745Z,18.10
2018-04-24T07:01:53.433Z,18.10
2018-04-24T07:04:20.952Z,18.10
2018-04-24T07:06:48.561Z,18.10
2018-04-24T07:22:11.254Z,18.20
2018-04-24T07:24:39.340Z,18.20
2018-04-24T07:27:07.975Z,18.30
2018-04-24T07:29:35.495Z,18.40
2018-04-24T07:32:03.020Z,18.50
2018-04-24T07:34:30.575Z,18.60
2018-04-24T07:36:59.366Z,18.80
2018-04-24T07:39:26.931Z,18.80
2018-04-24T07:41:54.677Z,18.80
2018-04-24T07:44:22.478Z,18.90
2018-04-24T07:46:50.056Z,19.00
2018-04-24T07:49:18.121Z,19.20
2018-04-24T07:51:45.985Z,19.20
2018-04-24T07:54:13.786Z,19.40
2018-04-24T07:56:41.316Z,19.40
2018-04-24T07:59:08.902Z,19.50
2018-04-24T08:01:36.445Z,19.70
2018-04-24T08:04:05.226Z,20.00
2018-04-24T08:06:32.795Z,20.00
2018-04-24T08:09:00.392Z,19.90
2018-04-24T08:11:27.931Z,20.00
2018-04-24T08:13:55.501Z,20.10
2018-04-24T08:16:23.820Z,20.00
2018-04-24T08:18:51.343Z,20.00
2018-04-24T08:21:19.719Z,20.10
2018-04-24T08:23:48.093Z,20.20
2018-04-24T08:26:15.716Z,20.10
2018-04-24T08:28:43.273Z,20.20
2018-04-24T08:31:11.738Z,20.20
2018-04-24T08:33:39.306Z,20.30
2018-04-24T08:36:06.840Z,20.40
2018-04-24T08:38:34.399Z,20.30
2018-04-24T08:41:02.608Z,20.50
2018-04-24T08:43:30.166Z,20.40
2018-04-24T08:45:57.749Z,20.40
2018-04-24T08:48:25.327Z,20.40
2018-04-24T08:50:52.861Z,20.50
2018-04-24T08:53:20.437Z,20.50
2018-04-24T08:55:47.992Z,20.50
2018-04-24T08:58:16.653Z,20.50
2018-04-24T09:00:44.213Z,20.50
2018-04-24T09:03:11.770Z,20.50
2018-04-24T09:05:39.353Z,20.70
2018-04-24T09:08:07.079Z,20.70
2018-04-24T09:10:34.624Z,20.70
2018-04-24T09:13:02.217Z,20.80
2018-04-24T09:15:30.691Z,20.80
2018-04-24T09:17:58.252Z,20.90
2018-04-24T09:20:26.040Z,20.90
2018-04-24T09:22:53.600Z,20.90
2018-04-24T09:25:21.847Z,20.90
2018-04-24T09:27:49.386Z,20.90
2018-04-24T09:30:16.929Z,20.90
2018-04-24T09:32:44.515Z,20.80
2018-04-24T09:35:27.690Z,20.80
2018-04-24T09:37:55.274Z,20.90
2018-04-24T09:40:22.887Z,20.90
2018-04-24T09:45:25.330Z,21.00
2018-04-24T09:47:53.664Z,21.30
2018-04-24T09:50:21.218Z,21.30
2018-04-24T09:52:49.705Z,21.50
2018-04-24T09:55:17.855Z,21.60
2018-04-24T09:57:48.910Z,21.60
2018-04-24T10:00:26.316Z,21.60
2018-04-24T10:02:53.886Z,21.70
2018-04-24T10:05:21.418Z,21.60
2018-04-24T10:07:49.622Z,21.50
2018-04-24T10:10:17.156Z,21.40
2018-04-24T10:12:44.945Z,21.30
2018-04-24T10:15:13.033Z,21.20
2018-04-24T10:17:40.770Z,21.20
2018-04-24T10:20:08.368Z,21.30
2018-04-24T10:22:36.693Z,21.50
2018-04-24T10:25:04.256Z,21.50
2018-04-24T10:27:31.796Z,21.50
2018-04-24T10:29:59.427Z,21.70
2018-04-24T10:32:27.265Z,21.80
2018-04-24T10:34:55.402Z,21.80
2018-04-24T10:37:26.892Z,21.70
2018-04-24T10:55:31.320Z,21.80
2018-04-24T10:57:59.970Z,22.10
2018-04-24T11:00:27.553Z,22.20
2018-04-24T11:02:55.127Z,22.30
2018-04-24T11:05:22.698Z,22.40
2018-04-24T11:07:50.432Z,22.50
2018-04-24T11:10:17.990Z,22.40
2018-04-24T11:12:45.537Z,22.40
2018-04-24T11:15:13.398Z,22.60
2018-04-24T11:17:41.033Z,22.50
2018-04-24T11:20:08.720Z,22.70
2018-04-24T11:22:36.312Z,22.80
2018-04-24T11:25:03.885Z,22.70
2018-04-24T11:27:31.442Z,22.60
2018-04-24T11:29:58.989Z,22.70
2018-04-24T11:32:27.546Z,22.80
2018-04-24T11:34:55.025Z,22.80
2018-04-24T11:37:22.589Z,23.00
2018-04-24T11:39:50.409Z,23.30
2018-04-24T11:42:18.409Z,23.40
2018-04-24T11:44:45.987Z,23.50
2018-04-24T11:47:13.522Z,23.60
2018-04-24T11:49:41.191Z,23.50
2018-04-24T11:52:08.684Z,23.50
2018-04-24T11:54:36.209Z,23.40
2018-04-24T11:57:03.826Z,23.40
2018-04-24T11:59:32.573Z,23.40
2018-04-24T12:02:00.132Z,23.40
2018-04-24T12:04:28.639Z,23.40
2018-04-24T12:06:56.231Z,23.40
2018-04-24T12:09:24.120Z,23.50
2018-04-24T12:11:51.681Z,23.50
2018-04-24T12:14:19.237Z,23.50
2018-04-24T12:16:46.797Z,23.60
2018-04-24T12:19:14.902Z,23.60
2018-04-24T12:21:42.467Z,23.60
2018-04-24T12:24:10.019Z,23.70
2018-04-24T12:26:37.721Z,23.80
2018-04-24T12:29:05.307Z,23.80
2018-04-24T12:31:32.835Z,23.80
2018-04-24T12:34:03.093Z,23.80
2018-04-24T12:36:30.639Z,23.90
2018-04-24T12:38:59.857Z,23.90
2018-04-24T12:41:27.393Z,23.80
2018-04-24T12:43:56.486Z,23.80
2018-04-24T12:46:24.027Z,23.80
2018-04-24T12:48:51.786Z,23.70
2018-04-24T12:51:19.351Z,23.60
2018-04-24T12:53:46.966Z,23.80
2018-04-24T12:56:14.723Z,23.70
2018-04-24T12:58:42.454Z,23.70
2018-04-24T13:01:10.777Z,23.80
2018-04-24T13:03:38.344Z,23.80
2018-04-24T13:06:06.206Z,24.00
2018-04-24T13:08:33.745Z,24.10
2018-04-24T13:11:01.311Z,24.20
2018-04-24T13:13:29.619Z,24.30
2018-04-24T13:15:57.210Z,24.20
2018-04-24T13:18:24.748Z,24.40
2018-04-24T13:20:56.203Z,24.40
2018-04-24T13:23:23.771Z,24.30
2018-04-24T13:25:51.845Z,24.30
2018-04-24T13:28:20.303Z,24.20
2018-04-24T13:30:47.858Z,24.20
2018-04-24T13:33:15.553Z,24.20
2018-04-24T13:35:43.145Z,24.30
2018-04-24T13:38:12.253Z,24.40
2018-04-24T13:40:39.829Z,24.40
2018-04-24T13:43:07.463Z,24.20
2018-04-24T13:45:35.176Z,24.20
2018-04-24T13:48:03.032Z,24.30
2018-04-24T13:50:31.118Z,24.40
2018-04-24T13:52:58.734Z,24.40
2018-04-24T13:55:27.295Z,24.50
2018-04-24T13:57:55.583Z,24.50
2018-04-24T14:00:23.159Z,24.50
2018-04-24T14:02:53.772Z,24.60
2018-04-24T14:05:21.800Z,24.60
2018-04-24T14:07:49.376Z,24.70
2018-04-24T14:10:17.080Z,24.70
2018-04-24T14:12:44.712Z,24.70
2018-04-24T14:15:12.310Z,24.80
2018-04-24T14:17:40.170Z,25.00
2018-04-24T14:20:08.634Z,24.90
2018-04-24T14:22:36.682Z,24.90
2018-04-24T14:25:04.293Z,24.90
2018-04-24T14:27:32.045Z,24.70
2018-04-24T14:30:00.254Z,24.60
2018-04-24T14:32:27.878Z,24.80
2018-04-24T14:34:55.492Z,24.90
2018-04-24T14:37:23.252Z,24.90
2018-04-24T14:39:50.807Z,24.50
2018-04-24T14:42:22.144Z,24.50
2018-04-24T14:44:49.753Z,24.60
2018-04-24T14:47:17.314Z,24.60
2018-04-24T14:49:44.892Z,24.50
2018-04-24T14:52:12.639Z,24.50
2018-04-24T14:54:40.213Z,24.50
2018-04-24T14:57:08.904Z,24.40
2018-04-24T14:59:37.936Z,24.60
2018-04-24T15:02:06.884Z,24.50
2018-04-24T15:04:35.278Z,24.60
2018-04-24T15:07:02.922Z,24.60
2018-04-24T15:09:31.234Z,24.40
2018-04-24T15:11:58.824Z,24.30
2018-04-24T15:14:26.431Z,24.20
2018-04-24T15:16:53.979Z,24.10
2018-04-24T15:19:22.401Z,24.10
2018-04-24T15:21:49.938Z,24.20
2018-04-24T15:24:18.914Z,24.40
2018-04-24T15:26:46.504Z,24.30
2018-04-24T15:29:15.024Z,24.40
2018-04-24T15:31:42.590Z,24.50
2018-04-24T15:34:10.286Z,24.60
2018-04-24T15:36:37.834Z,24.60
2018-04-24T15:39:06.201Z,24.90
2018-04-24T15:54:29.772Z,24.90
2018-04-24T15:56:57.304Z,24.80
2018-04-24T15:59:24.871Z,25.00
2018-04-24T16:01:52.409Z,25.00
2018-04-24T16:04:20.245Z,24.90
2018-04-24T16:06:48.290Z,25.10
2018-04-24T16:09:16.382Z,25.00
2018-04-24T16:11:44.690Z,25.10
2018-04-24T16:14:12.403Z,25.10
2018-04-24T16:16:39.995Z,25.00
2018-04-24T16:19:07.668Z,24.80
2018-04-24T16:21:36.041Z,24.70
2018-04-24T16:24:05.226Z,24.60
2018-04-24T16:26:32.743Z,24.60
2018-04-24T16:29:00.561Z,24.60
2018-04-24T16:31:28.890Z,24.60
2018-04-24T16:33:56.580Z,24.50
2018-04-24T16:36:24.086Z,24.50
2018-04-24T16:38:51.659Z,24.60
2018-04-24T16:41:19.339Z,24.70
2018-04-24T16:43:46.929Z,24.70
2018-04-24T16:46:14.457Z,24.50
2018-04-24T16:48:42.053Z,24.50
2018-04-24T16:51:11.377Z,24.50
2018-04-24T16:53:38.930Z,24.50
2018-04-24T16:56:07.841Z,24.50
2018-04-24T16:58:35.679Z,24.50
2018-04-24T17:01:04.028Z,24.60
2018-04-24T17:03:33.205Z,24.60
2018-04-24T17:06:00.757Z,24.60
2018-04-24T17:08:28.376Z,24.50
2018-04-24T17:10:56.105Z,24.40
2018-04-24T17:13:23.674Z,24.30
2018-04-24T17:15:51.210Z,24.10
2018-04-24T17:18:18.781Z,24.20
2018-04-24T17:20:46.654Z,24.00
2018-04-24T17:23:14.400Z,23.90
2018-04-24T17:25:41.935Z,23.80
2018-04-24T17:28:09.571Z,23.70
2018-04-24T17:30:37.152Z,23.60
2018-04-24T17:33:04.674Z,23.60
2018-04-24T17:35:32.302Z,23.60
2018-04-24T17:38:00.051Z,23.50
2018-04-24T17:40:27.582Z,23.40
2018-04-24T17:42:56.008Z,23.20
2018-04-24T17:45:24.318Z,23.20
2018-04-24T17:47:52.162Z,23.20
2018-04-24T17:50:20.530Z,23.20
2018-04-24T17:52:48.073Z,23.10
2018-04-24T17:55:15.615Z,23.00
2018-04-24T17:57:43.240Z,23.00
2018-04-24T18:00:10.914Z,23.10
2018-04-24T18:02:39.241Z,22.90
2018-04-24T18:05:06.890Z,22.90
2018-04-24T18:07:35.778Z,22.90
2018-04-24T18:10:03.370Z,22.60
2018-04-24T18:12:30.908Z,22.50
2018-04-24T18:14:58.795Z,22.50
2018-04-24T18:17:26.359Z,22.40
2018-04-24T18:19:53.905Z,22.40
2018-04-24T18:22:21.845Z,22.40
2018-04-24T18:24:50.471Z,22.30
2018-04-24T18:27:18.125Z,22.30
2018-04-24T18:29:45.672Z,22.40
2018-04-24T18:32:13.200Z,22.40
2018-04-24T18:34:42.069Z,22.30
2018-04-24T18:37:09.619Z,22.30
2018-04-24T18:39:37.885Z,22.30
2018-04-24T18:42:05.430Z,22.30
2018-04-24T18:44:33.196Z,22.30
2018-04-24T18:47:00.802Z,22.30
2018-04-24T18:49:28.353Z,22.30
2018-04-24T18:51:56.617Z,22.30
2018-04-24T18:54:24.225Z,22.40
2018-04-24T18:56:51.771Z,22.50
2018-04-24T18:59:20.150Z,22.50
2018-04-24T19:01:47.827Z,22.40
2018-04-24T19:04:15.649Z,22.50
2018-04-24T19:06:43.197Z,22.40
2018-04-24T19:09:10.797Z,22.40
2018-04-24T19:11:39.350Z,22.40
2018-04-24T19:14:12.632Z,22.30
2018-04-24T19:16:41.018Z,22.40
2018-04-24T19:19:14.073Z,22.20
2018-04-24T19:21:41.861Z,22.20
2018-04-24T19:24:09.445Z,22.20
2018-04-24T19:26:36.986Z,22.20
2018-04-24T19:29:04.557Z,22.20
2018-04-24T19:31:37.835Z,22.10
2018-04-24T19:34:05.441Z,22.10
2018-04-24T19:36:32.991Z,22.10
2018-04-24T19:39:06.125Z,22.00
2018-04-24T19:41:39.165Z,22.10
2018-04-24T19:44:06.923Z,22.10
2018-04-24T19:46:35.341Z,22.00
2018-04-24T19:52:05.400Z,22.00
2018-04-24T19:54:32.993Z,22.10
2018-04-24T19:57:03.215Z,22.00
2018-04-24T20:02:09.940Z,21.90
2018-04-24T20:04:43.271Z,22.00
2018-04-24T20:07:12.203Z,22.00
2018-04-24T20:12:44.567Z,22.00
2018-04-24T20:28:07.980Z,22.00
2018-04-24T20:30:37.724Z,21.40
2018-04-24T20:33:06.140Z,21.40
2018-04-24T20:35:34.201Z,21.40
2018-04-24T20:38:02.530Z,21.20
2018-04-24T20:40:30.850Z,21.20
2018-04-24T20:42:59.433Z,21.20
2018-04-24T20:45:27.054Z,21.20
2018-04-24T20:47:55.432Z,21.30
2018-04-24T20:50:23.731Z,21.30
2018-04-24T20:52:52.019Z,21.30
2018-04-24T20:55:22.458Z,21.30
2018-04-24T20:57:59.511Z,21.20
2018-04-24T21:00:27.280Z,21.30
2018-04-24T21:03:00.094Z,21.20
2018-04-24T21:05:27.672Z,21.00
2018-04-24T21:07:55.248Z,21.00
2018-04-24T21:10:24.485Z,20.80
2018-04-24T21:12:52.009Z,20.80
2018-04-24T21:15:19.535Z,20.70
2018-04-24T21:17:53.273Z,20.80
2018-04-24T21:20:20.820Z,20.80
2018-04-24T21:22:48.347Z,20.70
2018-04-24T21:25:16.006Z,20.70
2018-04-24T21:27:43.554Z,20.60
2018-04-24T21:30:11.079Z,20.60
2018-04-24T21:32:40.305Z,20.40
2018-04-24T21:35:11.331Z,20.40
2018-04-24T21:37:41.696Z,20.30
2018-04-24T21:40:14.035Z,20.30
2018-04-24T21:42:42.663Z,20.30
2018-04-24T21:45:12.951Z,20.20
2018-04-24T21:47:41.165Z,20.20
2018-04-24T21:50:08.725Z,20.20
2018-04-24T21:52:37.146Z,20.20
2018-04-24T21:55:04.802Z,20.10
2018-04-24T21:57:32.334Z,20.10
2018-04-24T21:59:59.936Z,20.10
2018-04-24T22:02:29.277Z,19.90
2018-04-24T22:04:56.928Z,19.80
2018-04-24T22:07:24.470Z,19.80
2018-04-24T22:09:52.299Z,19.80
2018-04-24T22:12:19.857Z,19.60
2018-04-24T22:14:49.023Z,19.60
2018-04-24T22:17:16.591Z,19.60
2018-04-24T22:19:44.139Z,19.50
2018-04-24T22:22:11.697Z,19.60
2018-04-24T22:24:40.009Z,19.70
2018-04-24T22:27:07.577Z,19.80
2018-04-24T22:29:35.118Z,19.90
2018-04-24T22:32:02.655Z,20.00
2018-04-24T22:34:30.216Z,20.10
2018-04-24T22:36:57.773Z,20.20
2018-04-24T22:39:25.330Z,20.30
2018-04-24T22:41:52.938Z,20.30
2018-04-24T22:44:20.506Z,20.30
2018-04-24T22:46:48.043Z,20.40
2018-04-24T22:49:16.449Z,20.40
2018-04-24T22:51:44.097Z,20.50
2018-04-24T22:54:12.388Z,20.30
2018-04-24T22:56:39.954Z,20.30
2018-04-24T22:59:07.720Z,20.20
2018-04-24T23:01:36.061Z,20.20
2018-04-24T23:04:03.614Z,20.10
2018-04-24T23:06:31.376Z,20.20
2018-04-24T23:08:59.897Z,20.20
2018-04-24T23:11:40.158Z,20.10
2018-04-24T23:14:20.566Z,20.10
2018-04-24T23:26:28.222Z,20.00
2018-04-24T23:28:55.782Z,19.50
2018-04-24T23:31:23.558Z,19.50
2018-04-24T23:33:51.266Z,19.60
2018-04-24T23:36:18.884Z,19.70
2018-04-24T23:38:46.556Z,19.80
2018-04-24T23:41:14.168Z,19.90
2018-04-24T23:43:42.466Z,19.90
2018-04-24T23:46:09.998Z,19.90
2018-04-24T23:48:38.523Z,19.90
2018-04-24T23:51:06.108Z,19.80
2018-04-24T23:53:33.659Z,19.80
2018-04-24T23:56:01.239Z,19.80
2018-04-24T23:58:29.623Z,19.70
